sensor_id;sensor_type;location;lat;lon;timestamp;pressure;altitude;pressure_sealevel;temperature;humidity
62600;BME280;48671;48.922;2.346;2023-03-16T00:01:08;101418.97;;;10.54;45.74
62600;BME280;48671;48.922;2.346;2023-03-16T00:03:34;101422.41;;;10.54;45.86
62600;BME280;48671;48.922;2.346;2023-03-16T00:05:59;101428.38;;;10.58;45.56
62600;BME280;48671;48.922;2.346;2023-03-16T00:08:24;101420.66;;;10.55;45.75
62600;BME280;48671;48.922;2.346;2023-03-16T00:10:51;101413.84;;;10.51;45.74
62600;BME280;48671;48.922;2.346;2023-03-16T00:13:20;101408.16;;;10.37;45.75
62600;BME280;48671;48.922;2.346;2023-03-16T00:15:49;101414.06;;;10.43;45.92
62600;BME280;48671;48.922;2.346;2023-03-16T00:18:15;101408.88;;;10.42;45.67
62600;BME280;48671;48.922;2.346;2023-03-16T00:20:40;101411.47;;;10.43;46.10
62600;BME280;48671;48.922;2.346;2023-03-16T00:23:06;101399.31;;;10.42;46.08
62600;BME280;48671;48.922;2.346;2023-03-16T00:25:31;101407.19;;;10.41;45.70
62600;BME280;48671;48.922;2.346;2023-03-16T00:27:58;101403.91;;;10.32;46.14
62600;BME280;48671;48.922;2.346;2023-03-16T00:30:23;101404.91;;;10.28;46.20
62600;BME280;48671;48.922;2.346;2023-03-16T00:32:48;101413.56;;;10.29;46.35
62600;BME280;48671;48.922;2.346;2023-03-16T00:35:14;101407.69;;;10.21;46.42
62600;BME280;48671;48.922;2.346;2023-03-16T00:37:39;101400.81;;;10.18;46.38
62600;BME280;48671;48.922;2.346;2023-03-16T00:40:07;101395.59;;;10.18;46.29
62600;BME280;48671;48.922;2.346;2023-03-16T00:42:33;101394.75;;;10.18;46.61
62600;BME280;48671;48.922;2.346;2023-03-16T00:44:59;101394.06;;;10.11;46.57
62600;BME280;48671;48.922;2.346;2023-03-16T00:47:28;101392.25;;;10.13;46.21
62600;BME280;48671;48.922;2.346;2023-03-16T00:49:54;101385.50;;;10.07;46.21
62600;BME280;48671;48.922;2.346;2023-03-16T00:52:19;101381.16;;;10.06;46.55
62600;BME280;48671;48.922;2.346;2023-03-16T00:54:46;101374.41;;;10.01;46.74
62600;BME280;48671;48.922;2.346;2023-03-16T00:57:15;101388.19;;;10.03;46.89
62600;BME280;48671;48.922;2.346;2023-03-16T00:59:43;101389.94;;;10.02;46.91
62600;BME280;48671;48.922;2.346;2023-03-16T01:02:10;101396.06;;;10.00;47.12
62600;BME280;48671;48.922;2.346;2023-03-16T01:04:36;101399.72;;;9.93;47.46
62600;BME280;48671;48.922;2.346;2023-03-16T01:07:03;101405.66;;;9.98;47.36
62600;BME280;48671;48.922;2.346;2023-03-16T01:09:29;101401.47;;;9.92;47.43
62600;BME280;48671;48.922;2.346;2023-03-16T01:11:55;101401.50;;;9.91;47.63
62600;BME280;48671;48.922;2.346;2023-03-16T01:14:21;101396.97;;;9.99;47.43
62600;BME280;48671;48.922;2.346;2023-03-16T01:16:47;101373.81;;;9.90;47.70
62600;BME280;48671;48.922;2.346;2023-03-16T01:19:13;101372.81;;;9.94;47.80
62600;BME280;48671;48.922;2.346;2023-03-16T01:21:39;101366.75;;;9.95;48.13
62600;BME280;48671;48.922;2.346;2023-03-16T01:24:05;101371.97;;;9.93;47.72
62600;BME280;48671;48.922;2.346;2023-03-16T01:26:30;101354.72;;;9.91;47.99
62600;BME280;48671;48.922;2.346;2023-03-16T01:28:56;101323.88;;;9.77;48.07
62600;BME280;48671;48.922;2.346;2023-03-16T01:31:22;101319.53;;;9.77;48.25
62600;BME280;48671;48.922;2.346;2023-03-16T01:33:47;101334.97;;;9.83;48.26
62600;BME280;48671;48.922;2.346;2023-03-16T01:36:15;101329.97;;;9.76;48.08
62600;BME280;48671;48.922;2.346;2023-03-16T01:38:40;101336.03;;;9.76;48.60
62600;BME280;48671;48.922;2.346;2023-03-16T01:41:07;101342.91;;;9.77;48.60
62600;BME280;48671;48.922;2.346;2023-03-16T01:43:34;101342.19;;;9.72;48.94
62600;BME280;48671;48.922;2.346;2023-03-16T01:51:41;101326.06;;;9.58;49.04
62600;BME280;48671;48.922;2.346;2023-03-16T01:59:52;101311.53;;;9.51;49.37
62600;BME280;48671;48.922;2.346;2023-03-16T02:02:23;101322.72;;;9.54;49.16
62600;BME280;48671;48.922;2.346;2023-03-16T02:07:21;101308.16;;;9.49;49.59
62600;BME280;48671;48.922;2.346;2023-03-16T02:09:49;101295.25;;;9.44;49.59
62600;BME280;48671;48.922;2.346;2023-03-16T02:12:16;101300.53;;;9.41;49.62
62600;BME280;48671;48.922;2.346;2023-03-16T02:14:44;101309.16;;;9.42;49.58
62600;BME280;48671;48.922;2.346;2023-03-16T02:17:10;101291.22;;;9.32;49.46
62600;BME280;48671;48.922;2.346;2023-03-16T02:22:10;101301.38;;;9.42;49.14
62600;BME280;48671;48.922;2.346;2023-03-16T02:24:36;101303.97;;;9.42;49.70
62600;BME280;48671;48.922;2.346;2023-03-16T02:27:06;101310.03;;;9.42;49.73
62600;BME280;48671;48.922;2.346;2023-03-16T02:32:13;101296.31;;;9.37;49.37
62600;BME280;48671;48.922;2.346;2023-03-16T02:34:40;101292.81;;;9.38;49.21
62600;BME280;48671;48.922;2.346;2023-03-16T02:37:07;101284.31;;;9.31;48.82
62600;BME280;48671;48.922;2.346;2023-03-16T02:39:33;101289.56;;;9.30;49.17
62600;BME280;48671;48.922;2.346;2023-03-16T02:42:00;101285.19;;;9.32;48.59
62600;BME280;48671;48.922;2.346;2023-03-16T02:44:29;101262.06;;;9.21;48.36
62600;BME280;48671;48.922;2.346;2023-03-16T02:47:02;101281.97;;;9.22;48.46
62600;BME280;48671;48.922;2.346;2023-03-16T02:49:41;101273.22;;;9.25;48.15
62600;BME280;48671;48.922;2.346;2023-03-16T02:52:08;101258.75;;;9.14;48.27
62600;BME280;48671;48.922;2.346;2023-03-16T02:54:34;101251.88;;;9.12;48.39
62600;BME280;48671;48.922;2.346;2023-03-16T02:56:59;101252.66;;;9.17;48.40
62600;BME280;48671;48.922;2.346;2023-03-16T02:59:25;101252.69;;;9.16;48.43
62600;BME280;48671;48.922;2.346;2023-03-16T03:01:50;101257.00;;;9.15;48.53
62600;BME280;48671;48.922;2.346;2023-03-16T03:04:16;101244.09;;;9.12;48.41
62600;BME280;48671;48.922;2.346;2023-03-16T03:06:42;101239.72;;;9.16;48.55
62600;BME280;48671;48.922;2.346;2023-03-16T03:09:08;101240.59;;;9.14;48.58
62600;BME280;48671;48.922;2.346;2023-03-16T03:11:36;101243.16;;;9.16;48.42
62600;BME280;48671;48.922;2.346;2023-03-16T03:14:01;101233.00;;;9.07;48.69
62600;BME280;48671;48.922;2.346;2023-03-16T03:16:28;101243.31;;;9.10;48.78
62600;BME280;48671;48.922;2.346;2023-03-16T03:18:53;101252.84;;;9.09;48.26
62600;BME280;48671;48.922;2.346;2023-03-16T03:21:19;101242.47;;;9.08;48.55
62600;BME280;48671;48.922;2.346;2023-03-16T03:23:44;101244.22;;;9.07;49.39
62600;BME280;48671;48.922;2.346;2023-03-16T03:26:11;101245.19;;;9.03;48.70
62600;BME280;48671;48.922;2.346;2023-03-16T03:28:36;101228.16;;;8.91;48.55
62600;BME280;48671;48.922;2.346;2023-03-16T03:31:02;101243.53;;;9.01;48.97
62600;BME280;48671;48.922;2.346;2023-03-16T03:33:27;101238.53;;;8.93;48.72
62600;BME280;48671;48.922;2.346;2023-03-16T03:35:57;101238.53;;;8.93;48.48
62600;BME280;48671;48.922;2.346;2023-03-16T03:38:23;101247.09;;;8.97;48.32
62600;BME280;48671;48.922;2.346;2023-03-16T03:40:53;101219.59;;;8.89;48.61
62600;BME280;48671;48.922;2.346;2023-03-16T03:43:19;101228.22;;;8.88;48.44
62600;BME280;48671;48.922;2.346;2023-03-16T03:45:45;101225.69;;;8.87;48.82
62600;BME280;48671;48.922;2.346;2023-03-16T03:48:10;101233.53;;;8.84;48.72
62600;BME280;48671;48.922;2.346;2023-03-16T03:50:36;101228.56;;;8.75;48.62
62600;BME280;48671;48.922;2.346;2023-03-16T03:53:03;101235.38;;;8.79;48.43
62600;BME280;48671;48.922;2.346;2023-03-16T03:55:28;101238.03;;;8.77;48.33
62600;BME280;48671;48.922;2.346;2023-03-16T03:57:54;101237.16;;;8.77;48.37
62600;BME280;48671;48.922;2.346;2023-03-16T04:00:19;101226.16;;;8.67;48.80
62600;BME280;48671;48.922;2.346;2023-03-16T04:02:46;101232.13;;;8.69;48.77
62600;BME280;48671;48.922;2.346;2023-03-16T04:05:11;101226.09;;;8.70;48.48
62600;BME280;48671;48.922;2.346;2023-03-16T04:07:37;101217.53;;;8.65;48.79
62600;BME280;48671;48.922;2.346;2023-03-16T04:10:03;101217.41;;;8.70;48.54
62600;BME280;48671;48.922;2.346;2023-03-16T04:12:28;101214.88;;;8.68;48.82
62600;BME280;48671;48.922;2.346;2023-03-16T04:14:54;101204.44;;;8.70;48.80
62600;BME280;48671;48.922;2.346;2023-03-16T04:17:19;101206.25;;;8.66;48.87
62600;BME280;48671;48.922;2.346;2023-03-16T04:19:44;101201.19;;;8.61;48.68
62600;BME280;48671;48.922;2.346;2023-03-16T04:22:10;101196.91;;;8.59;48.82
62600;BME280;48671;48.922;2.346;2023-03-16T04:24:37;101185.66;;;8.60;48.89
62600;BME280;48671;48.922;2.346;2023-03-16T04:27:02;101187.41;;;8.59;48.61
62600;BME280;48671;48.922;2.346;2023-03-16T04:29:28;101200.34;;;8.61;48.76
62600;BME280;48671;48.922;2.346;2023-03-16T04:31:53;101185.69;;;8.58;49.16
62600;BME280;48671;48.922;2.346;2023-03-16T04:34:19;101181.50;;;8.53;48.92
62600;BME280;48671;48.922;2.346;2023-03-16T04:36:50;101176.28;;;8.54;49.11
62600;BME280;48671;48.922;2.346;2023-03-16T04:39:16;101183.94;;;8.59;49.13
62600;BME280;48671;48.922;2.346;2023-03-16T04:41:42;101186.53;;;8.59;49.05
62600;BME280;48671;48.922;2.346;2023-03-16T04:44:07;101186.66;;;8.54;48.99
62600;BME280;48671;48.922;2.346;2023-03-16T04:46:32;101171.19;;;8.50;49.05
62600;BME280;48671;48.922;2.346;2023-03-16T04:48:58;101178.09;;;8.51;49.35
62600;BME280;48671;48.922;2.346;2023-03-16T04:51:24;101162.81;;;8.37;49.19
62600;BME280;48671;48.922;2.346;2023-03-16T04:53:49;101179.97;;;8.44;49.49
62600;BME280;48671;48.922;2.346;2023-03-16T04:56:15;101171.59;;;8.31;48.95
62600;BME280;48671;48.922;2.346;2023-03-16T04:58:43;101164.53;;;8.36;49.48
62600;BME280;48671;48.922;2.346;2023-03-16T05:01:09;101174.06;;;8.36;49.46
62600;BME280;48671;48.922;2.346;2023-03-16T05:03:34;101151.91;;;8.23;49.78
62600;BME280;48671;48.922;2.346;2023-03-16T05:05:59;101169.91;;;8.29;49.81
62600;BME280;48671;48.922;2.346;2023-03-16T05:08:25;101163.13;;;8.23;49.32
62600;BME280;48671;48.922;2.346;2023-03-16T05:10:50;101158.69;;;8.28;50.06
62600;BME280;48671;48.922;2.346;2023-03-16T05:13:16;101158.72;;;8.27;50.09
62600;BME280;48671;48.922;2.346;2023-03-16T05:15:41;101149.38;;;8.19;49.96
62600;BME280;48671;48.922;2.346;2023-03-16T05:18:06;101153.00;;;8.11;50.38
62600;BME280;48671;48.922;2.346;2023-03-16T05:20:31;101146.81;;;8.18;49.96
62600;BME280;48671;48.922;2.346;2023-03-16T05:22:57;101152.81;;;8.20;49.69
62600;BME280;48671;48.922;2.346;2023-03-16T05:25:22;101146.06;;;8.13;50.09
62600;BME280;48671;48.922;2.346;2023-03-16T05:27:50;101159.66;;;8.23;50.31
62600;BME280;48671;48.922;2.346;2023-03-16T05:30:16;101161.41;;;8.22;50.15
62600;BME280;48671;48.922;2.346;2023-03-16T05:32:43;101145.97;;;8.17;50.19
62600;BME280;48671;48.922;2.346;2023-03-16T05:35:09;101169.16;;;8.24;50.00
62600;BME280;48671;48.922;2.346;2023-03-16T05:37:38;101165.72;;;8.23;49.80
62600;BME280;48671;48.922;2.346;2023-03-16T05:40:05;101167.50;;;8.21;49.91
62600;BME280;48671;48.922;2.346;2023-03-16T05:42:42;101157.97;;;8.21;49.40
62600;BME280;48671;48.922;2.346;2023-03-16T05:45:07;101159.72;;;8.19;49.71
62600;BME280;48671;48.922;2.346;2023-03-16T05:47:33;101163.25;;;8.17;49.26
62600;BME280;48671;48.922;2.346;2023-03-16T05:50:00;101168.47;;;8.15;49.88
62600;BME280;48671;48.922;2.346;2023-03-16T05:52:26;101167.75;;;8.07;49.71
62600;BME280;48671;48.922;2.346;2023-03-16T05:54:51;101166.78;;;8.13;49.65
62600;BME280;48671;48.922;2.346;2023-03-16T05:57:16;101166.84;;;8.11;49.08
62600;BME280;48671;48.922;2.346;2023-03-16T05:59:41;101166.84;;;8.11;49.84
62600;BME280;48671;48.922;2.346;2023-03-16T06:02:08;101148.84;;;8.04;49.58
62600;BME280;48671;48.922;2.346;2023-03-16T06:04:35;101163.34;;;8.12;49.48
62600;BME280;48671;48.922;2.346;2023-03-16T06:07:01;101161.72;;;8.08;49.38
62600;BME280;48671;48.922;2.346;2023-03-16T06:09:26;101155.03;;;7.98;48.81
62600;BME280;48671;48.922;2.346;2023-03-16T06:11:51;101169.50;;;8.07;49.41
62600;BME280;48671;48.922;2.346;2023-03-16T06:14:17;101161.84;;;8.02;49.43
62600;BME280;48671;48.922;2.346;2023-03-16T06:16:42;101163.47;;;8.08;49.05
62600;BME280;48671;48.922;2.346;2023-03-16T06:19:08;101155.75;;;8.05;49.54
62600;BME280;48671;48.922;2.346;2023-03-16T06:21:33;101167.69;;;8.12;49.43
62600;BME280;48671;48.922;2.346;2023-03-16T06:23:58;101156.53;;;8.08;48.98
62600;BME280;48671;48.922;2.346;2023-03-16T06:26:24;101148.84;;;8.04;49.18
62600;BME280;48671;48.922;2.346;2023-03-16T06:28:49;101141.84;;;8.07;49.00
62600;BME280;48671;48.922;2.346;2023-03-16T06:31:15;101149.63;;;8.07;48.64
62600;BME280;48671;48.922;2.346;2023-03-16T06:33:40;101140.16;;;8.06;48.74
62600;BME280;48671;48.922;2.346;2023-03-16T06:36:06;101161.53;;;8.16;48.97
62600;BME280;48671;48.922;2.346;2023-03-16T06:38:31;101135.81;;;8.07;48.28
62600;BME280;48671;48.922;2.346;2023-03-16T06:40:57;101147.81;;;8.12;48.36
62600;BME280;48671;48.922;2.346;2023-03-16T06:43:23;101154.53;;;8.21;48.82
62600;BME280;48671;48.922;2.346;2023-03-16T06:45:48;101147.53;;;8.25;47.99
62600;BME280;48671;48.922;2.346;2023-03-16T06:48:13;101153.59;;;8.24;47.90
62600;BME280;48671;48.922;2.346;2023-03-16T06:50:39;101156.13;;;8.27;48.46
62600;BME280;48671;48.922;2.346;2023-03-16T06:53:04;101154.34;;;8.29;47.93
62600;BME280;48671;48.922;2.346;2023-03-16T06:55:29;101148.25;;;8.31;47.92
62600;BME280;48671;48.922;2.346;2023-03-16T06:57:55;101141.31;;;8.32;47.72
62600;BME280;48671;48.922;2.346;2023-03-16T07:00:21;101144.69;;;8.35;47.84
62600;BME280;48671;48.922;2.346;2023-03-16T07:02:46;101130.88;;;8.35;47.35
62600;BME280;48671;48.922;2.346;2023-03-16T07:05:12;101136.81;;;8.41;47.76
62600;BME280;48671;48.922;2.346;2023-03-16T07:07:41;101130.66;;;8.46;48.05
62600;BME280;48671;48.922;2.346;2023-03-16T07:10:15;101124.59;;;8.47;47.53
62600;BME280;48671;48.922;2.346;2023-03-16T07:12:41;101120.22;;;8.50;47.69
62600;BME280;48671;48.922;2.346;2023-03-16T07:15:07;101135.66;;;8.53;47.63
62600;BME280;48671;48.922;2.346;2023-03-16T07:17:33;101133.91;;;8.55;48.07
62600;BME280;48671;48.922;2.346;2023-03-16T07:19:58;101132.16;;;8.56;47.83
62600;BME280;48671;48.922;2.346;2023-03-16T07:22:23;101133.69;;;8.63;48.06
62600;BME280;48671;48.922;2.346;2023-03-16T07:24:49;101123.31;;;8.64;48.29
62600;BME280;48671;48.922;2.346;2023-03-16T07:27:22;101119.09;;;8.60;47.64
62600;BME280;48671;48.922;2.346;2023-03-16T07:29:48;101129.41;;;8.62;47.70
62600;BME280;48671;48.922;2.346;2023-03-16T07:32:14;101109.66;;;8.56;47.63
62600;BME280;48671;48.922;2.346;2023-03-16T07:34:40;101107.94;;;8.57;47.65
62600;BME280;48671;48.922;2.346;2023-03-16T07:37:06;101101.03;;;8.56;47.94
62600;BME280;48671;48.922;2.346;2023-03-16T07:39:33;101115.47;;;8.67;47.71
62600;BME280;48671;48.922;2.346;2023-03-16T07:41:58;101109.34;;;8.70;47.81
62600;BME280;48671;48.922;2.346;2023-03-16T07:44:24;101104.88;;;8.75;47.74
62600;BME280;48671;48.922;2.346;2023-03-16T07:46:49;101109.47;;;9.00;47.73
62600;BME280;48671;48.922;2.346;2023-03-16T07:49:15;101110.34;;;9.31;47.10
62600;BME280;48671;48.922;2.346;2023-03-16T07:51:41;101115.63;;;9.59;46.16
62600;BME280;48671;48.922;2.346;2023-03-16T07:54:06;101118.66;;;9.75;44.20
62600;BME280;48671;48.922;2.346;2023-03-16T07:56:31;101118.25;;;9.89;45.17
62600;BME280;48671;48.922;2.346;2023-03-16T07:58:57;101125.72;;;10.00;45.35
62600;BME280;48671;48.922;2.346;2023-03-16T08:01:22;101115.31;;;10.00;44.72
62600;BME280;48671;48.922;2.346;2023-03-16T08:03:48;101129.81;;;10.07;44.72
62600;BME280;48671;48.922;2.346;2023-03-16T08:06:13;101133.13;;;10.14;44.58
62600;BME280;48671;48.922;2.346;2023-03-16T08:08:39;101121.63;;;10.21;44.55
62600;BME280;48671;48.922;2.346;2023-03-16T08:11:04;101114.59;;;10.24;43.37
62600;BME280;48671;48.922;2.346;2023-03-16T08:13:30;101116.38;;;10.22;44.04
62600;BME280;48671;48.922;2.346;2023-03-16T08:15:55;101121.31;;;10.31;44.58
62600;BME280;48671;48.922;2.346;2023-03-16T08:18:28;101122.31;;;10.27;43.90
62600;BME280;48671;48.922;2.346;2023-03-16T08:20:55;101120.63;;;10.25;44.37
62600;BME280;48671;48.922;2.346;2023-03-16T08:23:21;101132.81;;;10.23;43.72
62600;BME280;48671;48.922;2.346;2023-03-16T08:25:51;101115.59;;;10.20;43.97
62600;BME280;48671;48.922;2.346;2023-03-16T08:28:16;101121.41;;;10.28;44.22
62600;BME280;48671;48.922;2.346;2023-03-16T08:30:49;101128.22;;;10.32;43.91
62600;BME280;48671;48.922;2.346;2023-03-16T08:33:15;101112.31;;;10.42;44.44
62600;BME280;48671;48.922;2.346;2023-03-16T08:35:42;101117.19;;;10.52;43.77
62600;BME280;48671;48.922;2.346;2023-03-16T08:38:09;101117.75;;;10.62;43.32
62600;BME280;48671;48.922;2.346;2023-03-16T08:40:34;101120.22;;;10.67;42.72
62600;BME280;48671;48.922;2.346;2023-03-16T08:43:00;101124.66;;;10.63;43.00
62600;BME280;48671;48.922;2.346;2023-03-16T08:45:25;101121.34;;;10.58;43.25
62600;BME280;48671;48.922;2.346;2023-03-16T08:47:51;101117.84;;;10.59;43.73
62600;BME280;48671;48.922;2.346;2023-03-16T08:50:16;101107.53;;;10.56;43.62
62600;BME280;48671;48.922;2.346;2023-03-16T08:52:43;101108.34;;;10.58;43.95
62600;BME280;48671;48.922;2.346;2023-03-16T08:55:09;101110.13;;;10.56;43.80
62600;BME280;48671;48.922;2.346;2023-03-16T08:57:35;101110.19;;;10.54;44.18
62600;BME280;48671;48.922;2.346;2023-03-16T09:00:03;101109.16;;;10.60;44.34
62600;BME280;48671;48.922;2.346;2023-03-16T09:02:42;101101.53;;;10.81;44.10
62600;BME280;48671;48.922;2.346;2023-03-16T09:05:10;101106.56;;;11.12;43.24
62600;BME280;48671;48.922;2.346;2023-03-16T09:07:36;101115.34;;;11.33;42.48
62600;BME280;48671;48.922;2.346;2023-03-16T09:10:03;101121.50;;;11.55;42.20
62600;BME280;48671;48.922;2.346;2023-03-16T09:12:30;101114.03;;;11.69;42.62
62600;BME280;48671;48.922;2.346;2023-03-16T09:14:56;101107.22;;;11.90;41.99
62600;BME280;48671;48.922;2.346;2023-03-16T09:17:21;101099.47;;;12.11;42.64
62600;BME280;48671;48.922;2.346;2023-03-16T09:19:47;101090.41;;;12.19;41.96
62600;BME280;48671;48.922;2.346;2023-03-16T09:22:12;101093.50;;;12.29;41.60
62600;BME280;48671;48.922;2.346;2023-03-16T09:24:37;101078.59;;;12.33;41.18
62600;BME280;48671;48.922;2.346;2023-03-16T09:27:03;101085.44;;;12.35;41.15
62600;BME280;48671;48.922;2.346;2023-03-16T09:29:29;101073.56;;;12.28;41.64
62600;BME280;48671;48.922;2.346;2023-03-16T09:31:54;101077.19;;;12.24;41.03
62600;BME280;48671;48.922;2.346;2023-03-16T09:34:20;101078.00;;;12.26;41.78
62600;BME280;48671;48.922;2.346;2023-03-16T09:36:46;101079.44;;;12.33;41.51
62600;BME280;48671;48.922;2.346;2023-03-16T09:39:12;101075.19;;;12.31;40.37
62600;BME280;48671;48.922;2.346;2023-03-16T09:41:43;101079.31;;;12.36;40.31
62600;BME280;48671;48.922;2.346;2023-03-16T09:44:22;101069.13;;;12.30;41.96
62600;BME280;48671;48.922;2.346;2023-03-16T09:46:53;101060.25;;;12.34;41.14
62600;BME280;48671;48.922;2.346;2023-03-16T09:49:23;101060.25;;;12.34;41.45
62600;BME280;48671;48.922;2.346;2023-03-16T09:52:19;101058.44;;;12.36;41.46
62600;BME280;48671;48.922;2.346;2023-03-16T09:54:54;101058.81;;;12.49;41.53
62600;BME280;48671;48.922;2.346;2023-03-16T09:57:25;101063.88;;;12.52;40.90
62600;BME280;48671;48.922;2.346;2023-03-16T09:59:52;101067.34;;;12.53;40.44
62600;BME280;48671;48.922;2.346;2023-03-16T10:05:11;101061.94;;;12.78;41.11
62600;BME280;48671;48.922;2.346;2023-03-16T10:08:14;101064.38;;;12.82;40.86
62600;BME280;48671;48.922;2.346;2023-03-16T10:11:02;101064.75;;;12.94;40.53
62600;BME280;48671;48.922;2.346;2023-03-16T10:16:08;101066.03;;;13.04;39.70
62600;BME280;48671;48.922;2.346;2023-03-16T10:18:42;101054.41;;;13.11;41.13
62600;BME280;48671;48.922;2.346;2023-03-16T10:21:12;101053.72;;;13.28;40.26
62600;BME280;48671;48.922;2.346;2023-03-16T10:23:38;101064.53;;;13.39;40.17
62600;BME280;48671;48.922;2.346;2023-03-16T10:26:12;101059.47;;;13.55;40.11
62600;BME280;48671;48.922;2.346;2023-03-16T10:28:38;101056.22;;;13.69;40.01
62600;BME280;48671;48.922;2.346;2023-03-16T10:31:04;101045.75;;;13.88;39.41
62600;BME280;48671;48.922;2.346;2023-03-16T10:33:34;101051.81;;;14.07;40.08
62600;BME280;48671;48.922;2.346;2023-03-16T10:36:11;101046.59;;;14.24;39.13
62600;BME280;48671;48.922;2.346;2023-03-16T10:38:42;101040.38;;;14.44;39.05
62600;BME280;48671;48.922;2.346;2023-03-16T10:44:12;101041.88;;;14.67;37.99
62600;BME280;48671;48.922;2.346;2023-03-16T10:46:45;101040.41;;;14.79;38.75
62600;BME280;48671;48.922;2.346;2023-03-16T10:49:39;101040.38;;;14.96;38.03
62600;BME280;48671;48.922;2.346;2023-03-16T10:57:36;101015.84;;;15.15;37.54
62600;BME280;48671;48.922;2.346;2023-03-16T11:00:13;101021.34;;;15.26;37.62
62600;BME280;48671;48.922;2.346;2023-03-16T11:02:48;101008.84;;;15.31;37.83
62600;BME280;48671;48.922;2.346;2023-03-16T11:07:50;101001.56;;;15.36;35.30
62600;BME280;48671;48.922;2.346;2023-03-16T11:10:29;101007.34;;;15.43;36.74
62600;BME280;48671;48.922;2.346;2023-03-16T11:13:01;101009.47;;;15.52;36.40
62600;BME280;48671;48.922;2.346;2023-03-16T11:15:35;100990.28;;;15.67;36.46
62600;BME280;48671;48.922;2.346;2023-03-16T11:18:01;100985.88;;;15.84;36.63
62600;BME280;48671;48.922;2.346;2023-03-16T11:20:29;100984.66;;;16.05;36.37
62600;BME280;48671;48.922;2.346;2023-03-16T11:22:57;100982.59;;;16.26;35.26
62600;BME280;48671;48.922;2.346;2023-03-16T11:25:32;100976.97;;;16.32;35.99
62600;BME280;48671;48.922;2.346;2023-03-16T11:28:36;100972.38;;;16.36;34.36
62600;BME280;48671;48.922;2.346;2023-03-16T11:34:18;100957.94;;;16.43;35.10
62600;BME280;48671;48.922;2.346;2023-03-16T11:36:50;100956.81;;;16.47;34.62
62600;BME280;48671;48.922;2.346;2023-03-16T11:39:29;100964.16;;;16.56;35.52
62600;BME280;48671;48.922;2.346;2023-03-16T11:42:12;100955.38;;;16.72;34.62
62600;BME280;48671;48.922;2.346;2023-03-16T11:44:54;100953.97;;;16.80;33.67
62600;BME280;48671;48.922;2.346;2023-03-16T11:50:17;100941.78;;;16.94;35.29
62600;BME280;48671;48.922;2.346;2023-03-16T11:53:12;100938.66;;;17.16;33.75
62600;BME280;48671;48.922;2.346;2023-03-16T11:56:00;100925.22;;;17.35;34.09
62600;BME280;48671;48.922;2.346;2023-03-16T12:01:11;100931.94;;;17.53;33.38
62600;BME280;48671;48.922;2.346;2023-03-16T12:12:04;100906.31;;;18.09;32.07
62600;BME280;48671;48.922;2.346;2023-03-16T12:14:40;100892.34;;;18.21;33.40
62600;BME280;48671;48.922;2.346;2023-03-16T12:17:15;100897.19;;;18.40;30.98
62600;BME280;48671;48.922;2.346;2023-03-16T12:22:32;100890.34;;;18.38;32.27
62600;BME280;48671;48.922;2.346;2023-03-16T12:24:59;100874.22;;;18.30;32.41
62600;BME280;48671;48.922;2.346;2023-03-16T12:27:30;100885.16;;;18.23;31.94
62600;BME280;48671;48.922;2.346;2023-03-16T12:32:38;100875.06;;;18.43;31.25
62600;BME280;48671;48.922;2.346;2023-03-16T12:40:46;100855.34;;;18.74;32.02
62600;BME280;48671;48.922;2.346;2023-03-16T12:43:23;100843.88;;;18.99;31.55
62600;BME280;48671;48.922;2.346;2023-03-16T12:48:37;100839.19;;;19.39;30.64
62600;BME280;48671;48.922;2.346;2023-03-16T12:51:04;100818.88;;;19.53;30.55
62600;BME280;48671;48.922;2.346;2023-03-16T12:53:54;100823.69;;;19.59;30.04
62600;BME280;48671;48.922;2.346;2023-03-16T12:56:30;100821.56;;;19.64;29.69
62600;BME280;48671;48.922;2.346;2023-03-16T12:58:59;100817.63;;;19.70;30.15
62600;BME280;48671;48.922;2.346;2023-03-16T13:01:27;100803.75;;;19.79;28.78
62600;BME280;48671;48.922;2.346;2023-03-16T13:04:11;100809.38;;;19.85;30.07
62600;BME280;48671;48.922;2.346;2023-03-16T13:06:43;100803.06;;;19.99;28.91
62600;BME280;48671;48.922;2.346;2023-03-16T13:09:10;100807.34;;;20.00;28.79
62600;BME280;48671;48.922;2.346;2023-03-16T13:11:45;100802.53;;;19.94;27.18
62600;BME280;48671;48.922;2.346;2023-03-16T13:14:35;100791.50;;;20.00;28.41
62600;BME280;48671;48.922;2.346;2023-03-16T13:17:24;100786.38;;;20.10;28.64
62600;BME280;48671;48.922;2.346;2023-03-16T13:22:46;100785.06;;;20.61;29.19
62600;BME280;48671;48.922;2.346;2023-03-16T13:25:33;100783.13;;;20.74;25.50
62600;BME280;48671;48.922;2.346;2023-03-16T13:28:01;100778.53;;;20.76;26.75
62600;BME280;48671;48.922;2.346;2023-03-16T13:30:29;100773.00;;;20.79;25.98
62600;BME280;48671;48.922;2.346;2023-03-16T13:33:04;100759.78;;;20.79;26.84
62600;BME280;48671;48.922;2.346;2023-03-16T13:35:36;100759.91;;;20.77;27.33
62600;BME280;48671;48.922;2.346;2023-03-16T13:38:05;100763.16;;;20.81;28.15
62600;BME280;48671;48.922;2.346;2023-03-16T13:40:44;100750.31;;;20.76;24.90
62600;BME280;48671;48.922;2.346;2023-03-16T13:43:20;100747.34;;;20.47;26.29
62600;BME280;48671;48.922;2.346;2023-03-16T13:45:46;100735.44;;;20.42;25.40
62600;BME280;48671;48.922;2.346;2023-03-16T13:48:13;100753.69;;;20.67;25.38
62600;BME280;48671;48.922;2.346;2023-03-16T13:50:39;100741.06;;;20.71;25.67
62600;BME280;48671;48.922;2.346;2023-03-16T13:53:15;100735.97;;;20.79;24.70
62600;BME280;48671;48.922;2.346;2023-03-16T13:55:44;100732.41;;;20.80;23.57
62600;BME280;48671;48.922;2.346;2023-03-16T13:58:20;100726.13;;;20.81;24.98
62600;BME280;48671;48.922;2.346;2023-03-16T14:00:46;100726.16;;;20.70;25.32
62600;BME280;48671;48.922;2.346;2023-03-16T14:03:17;100730.25;;;20.63;24.79
62600;BME280;48671;48.922;2.346;2023-03-16T14:05:44;100727.03;;;20.48;25.73
62600;BME280;48671;48.922;2.346;2023-03-16T14:08:20;100723.69;;;20.57;26.34
62600;BME280;48671;48.922;2.346;2023-03-16T14:10:47;100727.41;;;20.54;25.07